sensor_id;sensor_type;location;lat;lon;timestamp;temperature;humidity
39099;DHT22;24844;52.380;7.018;2024-01-10T00:01:51;-2.70;95.20
39099;DHT22;24844;52.380;7.018;2024-01-10T00:04:16;-2.70;95.20
39099;DHT22;24844;52.380;7.018;2024-01-10T00:06:42;-2.70;95.30
39099;DHT22;24844;52.380;7.018;2024-01-10T00:09:08;-2.80;95.30
39099;DHT22;24844;52.380;7.018;2024-01-10T00:11:34;-2.70;95.40
39099;DHT22;24844;52.380;7.018;2024-01-10T00:13:59;-2.80;95.60
39099;DHT22;24844;52.380;7.018;2024-01-10T00:16:28;-2.80;95.60
39099;DHT22;24844;52.380;7.018;2024-01-10T00:18:54;-2.80;95.70
39099;DHT22;24844;52.380;7.018;2024-01-10T00:21:20;-2.80;95.90
39099;DHT22;24844;52.380;7.018;2024-01-10T00:23:45;-2.90;96.00
39099;DHT22;24844;52.380;7.018;2024-01-10T00:26:11;-3.00;96.20
39099;DHT22;24844;52.380;7.018;2024-01-10T00:28:36;-3.10;96.30
39099;DHT22;24844;52.380;7.018;2024-01-10T00:31:02;-3.10;96.40
39099;DHT22;24844;52.380;7.018;2024-01-10T00:33:28;-3.10;96.40
39099;DHT22;24844;52.380;7.018;2024-01-10T00:35:53;-3.20;96.50
39099;DHT22;24844;52.380;7.018;2024-01-10T00:38:19;-3.30;96.90
39099;DHT22;24844;52.380;7.018;2024-01-10T00:40:45;-3.20;97.20
39099;DHT22;24844;52.380;7.018;2024-01-10T00:43:10;-3.20;97.50
39099;DHT22;24844;52.380;7.018;2024-01-10T00:45:36;-3.30;97.70
39099;DHT22;24844;52.380;7.018;2024-01-10T00:48:01;-3.30;97.90
39099;DHT22;24844;52.380;7.018;2024-01-10T00:50:27;-3.30;97.90
39099;DHT22;24844;52.380;7.018;2024-01-10T00:52:52;-3.30;97.90
39099;DHT22;24844;52.380;7.018;2024-01-10T00:55:18;-3.40;98.40
39099;DHT22;24844;52.380;7.018;2024-01-10T00:57:43;-3.50;98.70
39099;DHT22;24844;52.380;7.018;2024-01-10T01:00:10;-3.60;99.00
39099;DHT22;24844;52.380;7.018;2024-01-10T01:02:36;-3.50;99.10
39099;DHT22;24844;52.380;7.018;2024-01-10T01:05:05;-3.60;99.20
39099;DHT22;24844;52.380;7.018;2024-01-10T01:07:30;-3.50;99.20
39099;DHT22;24844;52.380;7.018;2024-01-10T01:09:56;-3.60;99.20
39099;DHT22;24844;52.380;7.018;2024-01-10T01:12:22;-3.70;99.50
39099;DHT22;24844;52.380;7.018;2024-01-10T01:14:47;-3.70;99.50
39099;DHT22;24844;52.380;7.018;2024-01-10T01:17:13;-3.70;99.70
39099;DHT22;24844;52.380;7.018;2024-01-10T01:19:38;-3.70;99.90
39099;DHT22;24844;52.380;7.018;2024-01-10T01:22:04;-3.80;99.90
39099;DHT22;24844;52.380;7.018;2024-01-10T01:24:29;-3.60;99.90
39099;DHT22;24844;52.380;7.018;2024-01-10T01:26:55;-3.70;99.90
39099;DHT22;24844;52.380;7.018;2024-01-10T01:29:20;-3.60;99.90
39099;DHT22;24844;52.380;7.018;2024-01-10T01:31:46;-3.70;99.90
39099;DHT22;24844;52.380;7.018;2024-01-10T01:34:12;-3.70;99.90
39099;DHT22;24844;52.380;7.018;2024-01-10T01:36:37;-3.70;99.90
39099;DHT22;24844;52.380;7.018;2024-01-10T01:39:03;-3.70;99.90
39099;DHT22;24844;52.380;7.018;2024-01-10T01:41:29;-3.70;99.90
39099;DHT22;24844;52.380;7.018;2024-01-10T01:43:54;-3.90;99.90
39099;DHT22;24844;52.380;7.018;2024-01-10T01:46:20;-3.90;99.90
39099;DHT22;24844;52.380;7.018;2024-01-10T01:48:46;-3.90;99.90
39099;DHT22;24844;52.380;7.018;2024-01-10T01:51:12;-3.80;99.90
39099;DHT22;24844;52.380;7.018;2024-01-10T01:53:40;-3.80;99.90
39099;DHT22;24844;52.380;7.018;2024-01-10T01:56:08;-3.80;99.90
39099;DHT22;24844;52.380;7.018;2024-01-10T01:58:35;-4.00;99.90
39099;DHT22;24844;52.380;7.018;2024-01-10T02:01:03;-3.90;99.90
39099;DHT22;24844;52.380;7.018;2024-01-10T02:03:30;-3.80;99.90
39099;DHT22;24844;52.380;7.018;2024-01-10T02:05:56;-3.90;99.90
39099;DHT22;24844;52.380;7.018;2024-01-10T02:08:23;-3.90;99.90
39099;DHT22;24844;52.380;7.018;2024-01-10T02:10:48;-4.00;99.90
39099;DHT22;24844;52.380;7.018;2024-01-10T02:13:15;-4.00;99.90
39099;DHT22;24844;52.380;7.018;2024-01-10T02:15:40;-4.00;99.90
39099;DHT22;24844;52.380;7.018;2024-01-10T02:18:06;-4.00;99.90
39099;DHT22;24844;52.380;7.018;2024-01-10T02:20:32;-3.90;99.90
39099;DHT22;24844;52.380;7.018;2024-01-10T02:22:58;-4.00;99.90
39099;DHT22;24844;52.380;7.018;2024-01-10T02:25:24;-4.00;99.90
39099;DHT22;24844;52.380;7.018;2024-01-10T02:27:49;-3.90;99.90
39099;DHT22;24844;52.380;7.018;2024-01-10T02:30:15;-4.00;99.90
39099;DHT22;24844;52.380;7.018;2024-01-10T02:32:41;-4.00;99.90
39099;DHT22;24844;52.380;7.018;2024-01-10T02:35:07;-4.00;99.90
39099;DHT22;24844;52.380;7.018;2024-01-10T02:37:33;-4.00;99.90
39099;DHT22;24844;52.380;7.018;2024-01-10T02:39:59;-4.00;99.90
39099;DHT22;24844;52.380;7.018;2024-01-10T02:42:27;-3.90;99.90
39099;DHT22;24844;52.380;7.018;2024-01-10T02:44:53;-3.80;99.90
39099;DHT22;24844;52.380;7.018;2024-01-10T02:47:18;-3.90;99.90
39099;DHT22;24844;52.380;7.018;2024-01-10T02:49:44;-3.90;99.90
39099;DHT22;24844;52.380;7.018;2024-01-10T02:52:09;-4.00;99.90
39099;DHT22;24844;52.380;7.018;2024-01-10T02:54:35;-4.00;99.90
39099;DHT22;24844;52.380;7.018;2024-01-10T02:57:00;-4.10;99.90
39099;DHT22;24844;52.380;7.018;2024-01-10T02:59:26;-4.00;99.90
39099;DHT22;24844;52.380;7.018;2024-01-10T03:01:52;-4.10;99.90
39099;DHT22;24844;52.380;7.018;2024-01-10T03:04:17;-4.10;99.90
39099;DHT22;24844;52.380;7.018;2024-01-10T03:06:43;-4.10;99.90
39099;DHT22;24844;52.380;7.018;2024-01-10T03:09:09;-4.00;99.90
39099;DHT22;24844;52.380;7.018;2024-01-10T03:11:34;-4.00;99.90
39099;DHT22;24844;52.380;7.018;2024-01-10T03:14:03;-4.00;99.90
39099;DHT22;24844;52.380;7.018;2024-01-10T03:16:30;-4.00;99.90
39099;DHT22;24844;52.380;7.018;2024-01-10T03:18:55;-4.00;99.90
39099;DHT22;24844;52.380;7.018;2024-01-10T03:21:21;-4.10;99.90
39099;DHT22;24844;52.380;7.018;2024-01-10T03:23:50;-4.10;99.90
39099;DHT22;24844;52.380;7.018;2024-01-10T03:26:16;-4.10;99.90
39099;DHT22;24844;52.380;7.018;2024-01-10T03:28:41;-4.00;99.90
39099;DHT22;24844;52.380;7.018;2024-01-10T03:31:07;-4.00;99.90
39099;DHT22;24844;52.380;7.018;2024-01-10T03:33:33;-4.10;99.90
39099;DHT22;24844;52.380;7.018;2024-01-10T03:35:58;-3.90;99.90
39099;DHT22;24844;52.380;7.018;2024-01-10T03:38:24;-4.00;99.90
39099;DHT22;24844;52.380;7.018;2024-01-10T03:40:49;-4.00;99.90
39099;DHT22;24844;52.380;7.018;2024-01-10T03:43:15;-4.10;99.90
39099;DHT22;24844;52.380;7.018;2024-01-10T03:45:42;-4.20;99.90
39099;DHT22;24844;52.380;7.018;2024-01-10T03:48:08;-4.10;99.90
39099;DHT22;24844;52.380;7.018;2024-01-10T03:50:33;-4.00;99.90
39099;DHT22;24844;52.380;7.018;2024-01-10T03:52:59;-4.00;99.90
39099;DHT22;24844;52.380;7.018;2024-01-10T03:55:25;-3.80;99.90
39099;DHT22;24844;52.380;7.018;2024-01-10T03:57:50;-3.70;99.90
39099;DHT22;24844;52.380;7.018;2024-01-10T04:00:16;-3.60;99.90
39099;DHT22;24844;52.380;7.018;2024-01-10T04:02:42;-3.60;99.90
39099;DHT22;24844;52.380;7.018;2024-01-10T04:05:10;-3.70;99.90
39099;DHT22;24844;52.380;7.018;2024-01-10T04:07:40;-3.80;99.90
39099;DHT22;24844;52.380;7.018;2024-01-10T04:10:07;-3.90;99.90
39099;DHT22;24844;52.380;7.018;2024-01-10T04:12:36;-3.90;99.90
39099;DHT22;24844;52.380;7.018;2024-01-10T04:15:01;-4.00;99.90
39099;DHT22;24844;52.380;7.018;2024-01-10T04:17:27;-4.00;99.90
39099;DHT22;24844;52.380;7.018;2024-01-10T04:19:53;-4.10;99.90
39099;DHT22;24844;52.380;7.018;2024-01-10T04:22:18;-4.00;99.90
39099;DHT22;24844;52.380;7.018;2024-01-10T04:24:44;-4.10;99.90
39099;DHT22;24844;52.380;7.018;2024-01-10T04:27:09;-4.10;99.90
39099;DHT22;24844;52.380;7.018;2024-01-10T04:29:35;-4.20;99.90
39099;DHT22;24844;52.380;7.018;2024-01-10T04:32:00;-4.20;99.90
39099;DHT22;24844;52.380;7.018;2024-01-10T04:34:26;-4.00;99.90
39099;DHT22;24844;52.380;7.018;2024-01-10T04:36:51;-4.00;99.90
39099;DHT22;24844;52.380;7.018;2024-01-10T04:39:17;-4.20;99.90
39099;DHT22;24844;52.380;7.018;2024-01-10T04:41:44;-4.00;99.90
39099;DHT22;24844;52.380;7.018;2024-01-10T04:44:09;-4.20;99.90
39099;DHT22;24844;52.380;7.018;2024-01-10T04:46:35;-4.20;99.90
39099;DHT22;24844;52.380;7.018;2024-01-10T04:49:00;-4.20;99.90
39099;DHT22;24844;52.380;7.018;2024-01-10T04:51:26;-4.20;99.90
39099;DHT22;24844;52.380;7.018;2024-01-10T04:53:52;-4.10;99.90
39099;DHT22;24844;52.380;7.018;2024-01-10T04:56:17;-4.10;99.90
39099;DHT22;24844;52.380;7.018;2024-01-10T04:58:43;-4.10;99.90
39099;DHT22;24844;52.380;7.018;2024-01-10T05:01:09;-3.80;99.90
39099;DHT22;24844;52.380;7.018;2024-01-10T05:03:34;-3.60;99.90
39099;DHT22;24844;52.380;7.018;2024-01-10T05:06:00;-3.70;99.90
39099;DHT22;24844;52.380;7.018;2024-01-10T05:08:26;-3.60;99.90
39099;DHT22;24844;52.380;7.018;2024-01-10T05:10:51;-3.60;99.90
39099;DHT22;24844;52.380;7.018;2024-01-10T05:13:17;-3.60;99.90
39099;DHT22;24844;52.380;7.018;2024-01-10T05:15:42;-3.50;99.90
39099;DHT22;24844;52.380;7.018;2024-01-10T05:18:08;-3.50;99.90
39099;DHT22;24844;52.380;7.018;2024-01-10T05:20:34;-3.60;99.90
39099;DHT22;24844;52.380;7.018;2024-01-10T05:22:59;-3.60;99.90
39099;DHT22;24844;52.380;7.018;2024-01-10T05:25:26;-3.60;99.90
39099;DHT22;24844;52.380;7.018;2024-01-10T05:27:52;-3.50;99.90
39099;DHT22;24844;52.380;7.018;2024-01-10T05:30:19;-3.50;99.90
39099;DHT22;24844;52.380;7.018;2024-01-10T05:32:44;-3.60;99.90
39099;DHT22;24844;52.380;7.018;2024-01-10T05:35:10;-3.60;99.90
39099;DHT22;24844;52.380;7.018;2024-01-10T05:37:36;-3.50;99.90
39099;DHT22;24844;52.380;7.018;2024-01-10T05:40:03;-3.40;99.90
39099;DHT22;24844;52.380;7.018;2024-01-10T05:42:30;-3.50;99.90
39099;DHT22;24844;52.380;7.018;2024-01-10T05:44:55;-3.70;99.90
39099;DHT22;24844;52.380;7.018;2024-01-10T05:47:21;-3.50;99.90
39099;DHT22;24844;52.380;7.018;2024-01-10T05:49:46;-3.60;99.90
39099;DHT22;24844;52.380;7.018;2024-01-10T05:52:12;-3.60;99.90
39099;DHT22;24844;52.380;7.018;2024-01-10T05:54:38;-3.60;99.90
39099;DHT22;24844;52.380;7.018;2024-01-10T05:57:04;-3.70;99.90
39099;DHT22;24844;52.380;7.018;2024-01-10T05:59:29;-3.70;99.90
39099;DHT22;24844;52.380;7.018;2024-01-10T06:01:56;-3.80;99.90
39099;DHT22;24844;52.380;7.018;2024-01-10T06:04:22;-3.80;99.90
39099;DHT22;24844;52.380;7.018;2024-01-10T06:06:48;-3.90;99.90
39099;DHT22;24844;52.380;7.018;2024-01-10T06:09:13;-3.80;99.90
39099;DHT22;24844;52.380;7.018;2024-01-10T06:11:41;-3.90;99.90
39099;DHT22;24844;52.380;7.018;2024-01-10T06:14:07;-3.80;99.90
39099;DHT22;24844;52.380;7.018;2024-01-10T06:16:32;-4.00;99.90
39099;DHT22;24844;52.380;7.018;2024-01-10T06:18:58;-4.10;99.90
39099;DHT22;24844;52.380;7.018;2024-01-10T06:21:24;-4.00;99.90
39099;DHT22;24844;52.380;7.018;2024-01-10T06:23:49;-4.10;99.90
39099;DHT22;24844;52.380;7.018;2024-01-10T06:26:15;-4.20;99.90
39099;DHT22;24844;52.380;7.018;2024-01-10T06:28:40;-4.20;99.90
39099;DHT22;24844;52.380;7.018;2024-01-10T06:31:06;-4.30;99.90
39099;DHT22;24844;52.380;7.018;2024-01-10T06:33:32;-4.40;99.90
39099;DHT22;24844;52.380;7.018;2024-01-10T06:35:57;-4.30;99.90
39099;DHT22;24844;52.380;7.018;2024-01-10T06:38:23;-4.30;99.90
39099;DHT22;24844;52.380;7.018;2024-01-10T06:40:49;-4.40;99.90
39099;DHT22;24844;52.380;7.018;2024-01-10T06:43:16;-4.30;99.90
39099;DHT22;24844;52.380;7.018;2024-01-10T06:45:41;-4.40;99.90
39099;DHT22;24844;52.380;7.018;2024-01-10T06:48:08;-4.30;99.90
39099;DHT22;24844;52.380;7.018;2024-01-10T06:50:33;-4.50;99.90
39099;DHT22;24844;52.380;7.018;2024-01-10T06:52:59;-4.60;99.90
39099;DHT22;24844;52.380;7.018;2024-01-10T06:55:25;-4.50;99.90
39099;DHT22;24844;52.380;7.018;2024-01-10T06:57:51;-4.50;99.90
39099;DHT22;24844;52.380;7.018;2024-01-10T07:00:20;-4.40;99.90
39099;DHT22;24844;52.380;7.018;2024-01-10T07:02:46;-4.60;99.90
39099;DHT22;24844;52.380;7.018;2024-01-10T07:05:12;-4.40;99.90
39099;DHT22;24844;52.380;7.018;2024-01-10T07:07:37;-4.50;99.90
39099;DHT22;24844;52.380;7.018;2024-01-10T07:10:04;-4.50;99.90
39099;DHT22;24844;52.380;7.018;2024-01-10T07:12:31;-4.40;99.90
39099;DHT22;24844;52.380;7.018;2024-01-10T07:14:57;-4.30;99.90
39099;DHT22;24844;52.380;7.018;2024-01-10T07:17:22;-4.20;99.90
39099;DHT22;24844;52.380;7.018;2024-01-10T07:19:48;-4.20;99.90
39099;DHT22;24844;52.380;7.018;2024-01-10T07:22:15;-4.40;99.90
39099;DHT22;24844;52.380;7.018;2024-01-10T07:24:40;-4.40;99.90
39099;DHT22;24844;52.380;7.018;2024-01-10T07:27:06;-4.40;99.90
39099;DHT22;24844;52.380;7.018;2024-01-10T07:29:34;-4.40;99.90
39099;DHT22;24844;52.380;7.018;2024-01-10T07:31:59;-4.40;99.90
39099;DHT22;24844;52.380;7.018;2024-01-10T07:34:25;-4.30;99.90
39099;DHT22;24844;52.380;7.018;2024-01-10T07:36:50;-4.30;99.90
39099;DHT22;24844;52.380;7.018;2024-01-10T07:39:17;-4.30;99.90
39099;DHT22;24844;52.380;7.018;2024-01-10T07:41:44;-4.20;99.90
39099;DHT22;24844;52.380;7.018;2024-01-10T07:44:09;-4.20;99.90
39099;DHT22;24844;52.380;7.018;2024-01-10T07:46:35;-4.10;99.90
39099;DHT22;24844;52.380;7.018;2024-01-10T07:49:03;-4.00;99.90
39099;DHT22;24844;52.380;7.018;2024-01-10T07:51:29;-4.00;99.90
39099;DHT22;24844;52.380;7.018;2024-01-10T07:53:55;-3.90;99.90
39099;DHT22;24844;52.380;7.018;2024-01-10T07:56:21;-4.00;99.90
39099;DHT22;24844;52.380;7.018;2024-01-10T07:58:47;-3.90;99.90
39099;DHT22;24844;52.380;7.018;2024-01-10T08:01:12;-4.00;99.90
39099;DHT22;24844;52.380;7.018;2024-01-10T08:03:38;-4.00;99.90
39099;DHT22;24844;52.380;7.018;2024-01-10T08:06:04;-3.90;99.90
39099;DHT22;24844;52.380;7.018;2024-01-10T08:08:31;-3.80;99.90
39099;DHT22;24844;52.380;7.018;2024-01-10T08:10:56;-3.90;99.90
39099;DHT22;24844;52.380;7.018;2024-01-10T08:13:23;-3.80;99.90
39099;DHT22;24844;52.380;7.018;2024-01-10T08:15:49;-3.70;99.90
39099;DHT22;24844;52.380;7.018;2024-01-10T08:18:14;-3.50;99.90
39099;DHT22;24844;52.380;7.018;2024-01-10T08:20:40;-3.40;99.90
39099;DHT22;24844;52.380;7.018;2024-01-10T08:23:06;-3.30;99.90
39099;DHT22;24844;52.380;7.018;2024-01-10T08:25:31;-3.20;99.90
39099;DHT22;24844;52.380;7.018;2024-01-10T08:27:57;-3.20;99.90
39099;DHT22;24844;52.380;7.018;2024-01-10T08:30:23;-2.80;99.90
39099;DHT22;24844;52.380;7.018;2024-01-10T08:32:49;-2.10;99.90
39099;DHT22;24844;52.380;7.018;2024-01-10T08:35:15;-1.20;99.90
39099;DHT22;24844;52.380;7.018;2024-01-10T08:37:41;-0.60;99.90
39099;DHT22;24844;52.380;7.018;2024-01-10T08:40:10;0.00;99.50
39099;DHT22;24844;52.380;7.018;2024-01-10T08:42:38;0.60;97.50
39099;DHT22;24844;52.380;7.018;2024-01-10T08:45:04;1.30;97.20
39099;DHT22;24844;52.380;7.018;2024-01-10T08:47:30;1.60;95.50
39099;DHT22;24844;52.380;7.018;2024-01-10T08:50:05;2.00;91.40
39099;DHT22;24844;52.380;7.018;2024-01-10T08:52:34;2.70;91.00
39099;DHT22;24844;52.380;7.018;2024-01-10T08:55:00;3.30;90.40
39099;DHT22;24844;52.380;7.018;2024-01-10T08:57:25;3.90;88.00
39099;DHT22;24844;52.380;7.018;2024-01-10T08:59:53;4.30;85.20
39099;DHT22;24844;52.380;7.018;2024-01-10T09:02:18;4.60;83.30
39099;DHT22;24844;52.380;7.018;2024-01-10T09:04:44;4.90;79.90
39099;DHT22;24844;52.380;7.018;2024-01-10T09:07:10;4.70;79.70
39099;DHT22;24844;52.380;7.018;2024-01-10T09:09:35;4.80;79.20
39099;DHT22;24844;52.380;7.018;2024-01-10T09:12:01;5.00;77.30
39099;DHT22;24844;52.380;7.018;2024-01-10T09:14:27;5.30;77.30
39099;DHT22;24844;52.380;7.018;2024-01-10T09:16:52;5.50;76.60
39099;DHT22;24844;52.380;7.018;2024-01-10T09:19:18;5.40;75.50
39099;DHT22;24844;52.380;7.018;2024-01-10T09:21:43;5.30;75.20
39099;DHT22;24844;52.380;7.018;2024-01-10T09:24:09;4.90;74.00
39099;DHT22;24844;52.380;7.018;2024-01-10T09:26:36;4.30;75.20
39099;DHT22;24844;52.380;7.018;2024-01-10T09:29:02;3.80;75.70
39099;DHT22;24844;52.380;7.018;2024-01-10T09:31:27;3.70;75.10
39099;DHT22;24844;52.380;7.018;2024-01-10T09:33:53;3.10;76.10
39099;DHT22;24844;52.380;7.018;2024-01-10T09:36:18;2.60;75.50
39099;DHT22;24844;52.380;7.018;2024-01-10T09:38:44;2.00;78.40
39099;DHT22;24844;52.380;7.018;2024-01-10T09:41:11;2.20;78.80
39099;DHT22;24844;52.380;7.018;2024-01-10T09:43:38;1.90;78.90
39099;DHT22;24844;52.380;7.018;2024-01-10T09:46:06;1.90;79.60
39099;DHT22;24844;52.380;7.018;2024-01-10T09:48:32;1.90;79.40
39099;DHT22;24844;52.380;7.018;2024-01-10T09:50:58;2.00;78.70
39099;DHT22;24844;52.380;7.018;2024-01-10T09:53:25;1.60;79.00
39099;DHT22;24844;52.380;7.018;2024-01-10T09:55:55;1.80;79.80
39099;DHT22;24844;52.380;7.018;2024-01-10T09:58:25;1.30;80.40
39099;DHT22;24844;52.380;7.018;2024-01-10T10:00:51;1.40;80.60
39099;DHT22;24844;52.380;7.018;2024-01-10T10:03:18;1.50;79.20
39099;DHT22;24844;52.380;7.018;2024-01-10T10:05:44;1.70;78.10
39099;DHT22;24844;52.380;7.018;2024-01-10T10:08:12;1.60;77.70
39099;DHT22;24844;52.380;7.018;2024-01-10T10:10:38;1.30;78.90
39099;DHT22;24844;52.380;7.018;2024-01-10T10:13:09;1.30;79.20
39099;DHT22;24844;52.380;7.018;2024-01-10T10:15:37;1.50;77.70
39099;DHT22;24844;52.380;7.018;2024-01-10T10:18:03;1.20;78.70
39099;DHT22;24844;52.380;7.018;2024-01-10T10:20:30;1.00;78.60
39099;DHT22;24844;52.380;7.018;2024-01-10T10:23:05;1.10;78.10
39099;DHT22;24844;52.380;7.018;2024-01-10T10:25:36;0.80;79.20
39099;DHT22;24844;52.380;7.018;2024-01-10T10:28:04;1.00;79.70
39099;DHT22;24844;52.380;7.018;2024-01-10T10:30:33;1.30;79.00
39099;DHT22;24844;52.380;7.018;2024-01-10T10:32:58;1.40;78.50
39099;DHT22;24844;52.380;7.018;2024-01-10T10:35:24;1.50;78.70
39099;DHT22;24844;52.380;7.018;2024-01-10T10:37:51;1.80;77.70
39099;DHT22;24844;52.380;7.018;2024-01-10T10:40:18;2.20;77.50
39099;DHT22;24844;52.380;7.018;2024-01-10T10:42:45;2.80;76.90
39099;DHT22;24844;52.380;7.018;2024-01-10T10:45:16;3.60;76.10
39099;DHT22;24844;52.380;7.018;2024-01-10T10:47:44;4.20;74.30
39099;DHT22;24844;52.380;7.018;2024-01-10T10:50:22;4.90;74.10
39099;DHT22;24844;52.380;7.018;2024-01-10T10:52:48;5.30;71.60
39099;DHT22;24844;52.380;7.018;2024-01-10T10:55:20;5.50;70.90
39099;DHT22;24844;52.380;7.018;2024-01-10T10:57:49;5.60;70.90
39099;DHT22;24844;52.380;7.018;2024-01-10T11:00:20;5.90;70.30
39099;DHT22;24844;52.380;7.018;2024-01-10T11:02:47;6.10;69.00
39099;DHT22;24844;52.380;7.018;2024-01-10T11:05:13;6.30;69.10
39099;DHT22;24844;52.380;7.018;2024-01-10T11:07:41;6.50;67.60
39099;DHT22;24844;52.380;7.018;2024-01-10T11:10:11;6.60;66.80
39099;DHT22;24844;52.380;7.018;2024-01-10T11:15:51;7.00;65.00
39099;DHT22;24844;52.380;7.018;2024-01-10T11:21:12;7.60;63.60
39099;DHT22;24844;52.380;7.018;2024-01-10T11:23:44;7.70;63.90
39099;DHT22;24844;52.380;7.018;2024-01-10T11:26:11;8.10;61.60
39099;DHT22;24844;52.380;7.018;2024-01-10T11:28:39;8.40;61.20
39099;DHT22;24844;52.380;7.018;2024-01-10T11:31:06;8.30;60.70
39099;DHT22;24844;52.380;7.018;2024-01-10T11:33:33;8.50;63.50
39099;DHT22;24844;52.380;7.018;2024-01-10T11:38:31;9.10;64.00
39099;DHT22;24844;52.380;7.018;2024-01-10T11:40:57;9.20;61.40
39099;DHT22;24844;52.380;7.018;2024-01-10T11:43:23;9.10;61.10
39099;DHT22;24844;52.380;7.018;2024-01-10T11:45:52;8.90;61.20
39099;DHT22;24844;52.380;7.018;2024-01-10T11:48:28;8.70;61.20
39099;DHT22;24844;52.380;7.018;2024-01-10T11:50:54;8.40;59.90
39099;DHT22;24844;52.380;7.018;2024-01-10T11:53:42;7.50;59.10
39099;DHT22;24844;52.380;7.018;2024-01-10T11:56:15;7.70;58.70
39099;DHT22;24844;52.380;7.018;2024-01-10T11:59:00;7.50;58.60
39099;DHT22;24844;52.380;7.018;2024-01-10T12:01:27;7.20;59.00
39099;DHT22;24844;52.380;7.018;2024-01-10T12:03:53;6.80;59.00
39099;DHT22;24844;52.380;7.018;2024-01-10T12:06:21;6.20;59.50
39099;DHT22;24844;52.380;7.018;2024-01-10T12:08:47;5.50;60.60
39099;DHT22;24844;52.380;7.018;2024-01-10T12:11:13;4.70;60.90
39099;DHT22;24844;52.380;7.018;2024-01-10T12:13:39;3.70;62.80
39099;DHT22;24844;52.380;7.018;2024-01-10T12:16:05;3.20;64.30
39099;DHT22;24844;52.380;7.018;2024-01-10T12:18:30;2.80;65.20
39099;DHT22;24844;52.380;7.018;2024-01-10T12:20:56;2.70;64.60
39099;DHT22;24844;52.380;7.018;2024-01-10T12:23:22;2.40;65.20
39099;DHT22;24844;52.380;7.018;2024-01-10T12:25:48;2.30;65.60
39099;DHT22;24844;52.380;7.018;2024-01-10T12:28:17;2.20;65.90
39099;DHT22;24844;52.380;7.018;2024-01-10T12:30:42;2.10;66.90
39099;DHT22;24844;52.380;7.018;2024-01-10T12:33:11;1.90;67.00
39099;DHT22;24844;52.380;7.018;2024-01-10T12:35:36;2.00;67.20
39099;DHT22;24844;52.380;7.018;2024-01-10T12:38:06;2.00;67.00
39099;DHT22;24844;52.380;7.018;2024-01-10T12:40:32;1.90;67.40
39099;DHT22;24844;52.380;7.018;2024-01-10T12:43:07;2.00;65.70
39099;DHT22;24844;52.380;7.018;2024-01-10T12:45:34;2.00;66.40
39099;DHT22;24844;52.380;7.018;2024-01-10T12:48:00;1.80;66.00
39099;DHT22;24844;52.380;7.018;2024-01-10T12:50:28;1.90;66.60
39099;DHT22;24844;52.380;7.018;2024-01-10T12:52:53;1.80;67.00
39099;DHT22;24844;52.380;7.018;2024-01-10T12:55:19;1.80;66.80
39099;DHT22;24844;52.380;7.018;2024-01-10T12:57:44;1.90;67.10
39099;DHT22;24844;52.380;7.018;2024-01-10T13:00:10;1.60;67.00
39099;DHT22;24844;52.380;7.018;2024-01-10T13:02:37;1.80;67.00
39099;DHT22;24844;52.380;7.018;2024-01-10T13:05:06;2.00;66.70
39099;DHT22;24844;52.380;7.018;2024-01-10T13:07:35;1.70;67.30
39099;DHT22;24844;52.380;7.018;2024-01-10T13:10:01;1.50;68.30
39099;DHT22;24844;52.380;7.018;2024-01-10T13:12:27;1.60;69.80
39099;DHT22;24844;52.380;7.018;2024-01-10T13:14:52;1.70;68.50
39099;DHT22;24844;52.380;7.018;2024-01-10T13:17:18;1.90;68.70
39099;DHT22;24844;52.380;7.018;2024-01-10T13:19:46;2.10;68.00
39099;DHT22;24844;52.380;7.018;2024-01-10T13:22:14;2.20;66.40
39099;DHT22;24844;52.380;7.018;2024-01-10T13:24:43;2.30;67.00
39099;DHT22;24844;52.380;7.018;2024-01-10T13:27:09;2.30;66.40
39099;DHT22;24844;52.380;7.018;2024-01-10T13:29:36;2.40;65.90
39099;DHT22;24844;52.380;7.018;2024-01-10T13:32:03;2.20;65.60
39099;DHT22;24844;52.380;7.018;2024-01-10T13:34:28;2.20;66.20
39099;DHT22;24844;52.380;7.018;2024-01-10T13:36:54;2.20;66.60
39099;DHT22;24844;52.380;7.018;2024-01-10T13:39:20;2.30;66.20
39099;DHT22;24844;52.380;7.018;2024-01-10T13:41:45;2.30;66.20
39099;DHT22;24844;52.380;7.018;2024-01-10T13:44:11;2.20;66.70
39099;DHT22;24844;52.380;7.018;2024-01-10T13:46:36;2.10;67.20
39099;DHT22;24844;52.380;7.018;2024-01-10T13:49:02;2.20;66.60
39099;DHT22;24844;52.380;7.018;2024-01-10T13:51:27;2.10;67.40
39099;DHT22;24844;52.380;7.018;2024-01-10T13:53:53;2.40;66.50
39099;DHT22;24844;52.380;7.018;2024-01-10T13:56:18;2.30;67.00
39099;DHT22;24844;52.380;7.018;2024-01-10T13:58:44;2.40;67.20
39099;DHT22;24844;52.380;7.018;2024-01-10T14:01:09;2.30;67.20
39099;DHT22;24844;52.380;7.018;2024-01-10T14:03:35;2.40;66.40
39099;DHT22;24844;52.380;7.018;2024-01-10T14:06:01;2.40;67.00
39099;DHT22;24844;52.380;7.018;2024-01-10T14:08:27;2.20;68.10
39099;DHT22;24844;52.380;7.018;2024-01-10T14:10:52;2.10;68.50
39099;DHT22;24844;52.380;7.018;2024-01-10T14:13:19;2.10;68.40
39099;DHT22;24844;52.380;7.018;2024-01-10T14:15:45;2.60;67.20
39099;DHT22;24844;52.380;7.018;2024-01-10T14:18:10;2.50;67.90
39099;DHT22;24844;52.380;7.018;2024-01-10T14:20:36;2.40;67.60
39099;DHT22;24844;52.380;7.018;2024-01-10T14:23:01;2.60;67.40
39099;DHT22;24844;52.380;7.018;2024-01-10T14:25:27;2.40;68.00
39099;DHT22;24844;52.380;7.018;2024-01-10T14:27:54;2.40;67.70
39099;DHT22;24844;52.380;7.018;2024-01-10T14:30:19;2.40;68.10
39099;DHT22;24844;52.380;7.018;2024-01-10T14:32:45;2.40;67.80
39099;DHT22;24844;52.380;7.018;2024-01-10T14:35:12;2.30;67.70
39099;DHT22;24844;52.380;7.018;2024-01-10T14:37:38;2.30;67.90
39099;DHT22;24844;52.380;7.018;2024-01-10T14:40:04;2.30;67.60
39099;DHT22;24844;52.380;7.018;2024-01-10T14:42:32;2.30;67.50
39099;DHT22;24844;52.380;7.018;2024-01-10T14:44:59;2.40;67.20
39099;DHT22;24844;52.380;7.018;2024-01-10T14:47:25;2.30;67.50
39099;DHT22;24844;52.380;7.018;2024-01-10T14:49:50;2.20;67.60
39099;DHT22;24844;52.380;7.018;2024-01-10T14:52:16;2.50;66.70
39099;DHT22;24844;52.380;7.018;2024-01-10T14:54:41;2.30;68.00
39099;DHT22;24844;52.380;7.018;2024-01-10T14:57:07;2.10;67.80
39099;DHT22;24844;52.380;7.018;2024-01-10T14:59:33;2.10;67.40
39099;DHT22;24844;52.380;7.018;2024-01-10T15:01:59;2.10;67.50
39099;DHT22;24844;52.380;7.018;2024-01-10T15:04:24;1.90;68.10
39099;DHT22;24844;52.380;7.018;2024-01-10T15:06:50;1.70;68.30
39099;DHT22;24844;52.380;7.018;2024-01-10T15:09:15;1.70;69.00
39099;DHT22;24844;52.380;7.018;2024-01-10T15:11:41;1.70;68.80
39099;DHT22;24844;52.380;7.018;2024-01-10T15:14:09;1.70;68.70
39099;DHT22;24844;52.380;7.018;2024-01-10T15:16:35;1.80;69.00
39099;DHT22;24844;52.380;7.018;2024-01-10T15:19:01;1.70;69.00
39099;DHT22;24844;52.380;7.018;2024-01-10T15:21:27;1.70;69.00
39099;DHT22;24844;52.380;7.018;2024-01-10T15:23:53;1.60;69.50
39099;DHT22;24844;52.380;7.018;2024-01-10T15:26:19;1.70;69.60
39099;DHT22;24844;52.380;7.018;2024-01-10T15:28:45;1.40;69.90
39099;DHT22;24844;52.380;7.018;2024-01-10T15:31:15;1.30;70.20
39099;DHT22;24844;52.380;7.018;2024-01-10T15:33:41;1.20;70.60
39099;DHT22;24844;52.380;7.018;2024-01-10T15:36:07;1.20;71.00
39099;DHT22;24844;52.380;7.018;2024-01-10T15:38:35;1.00;71.50
39099;DHT22;24844;52.380;7.018;2024-01-10T15:41:01;1.00;71.60